Roosevelt, Oklahoma
Current Conditions -  °F | °C
As of 9:53 AM on Monday 22 Dec 2014 (Local Time) from KHBR Reporting Station
Broken Clouds Broken Clouds  
Wind Chill:   Ceiling: 9500
Heat Index:   Visibility: 10mi
Dew Point:   Wind: 17mph
Humidity: 77%   Direction: 360°N
Pressure: 29.64"   Gusts: NA
Location:  34.85°N, 99.02°W
Report Text: KHBR 221553Z AUTO 36015KT 10SM SCT075 BKN095 BKN110 08/04 A2964 RMK AO2 PK WND 34029/1542 SLP038 T00830044
Loading
Personal Weather Stations






























Interactive Weather Map New forecast layout! Learn more

10-Day Weather Forecast

Advertisements
Track Severe Weather on mobile